sensor_id;sensor_type;location;lat;lon;timestamp;P1;durP1;ratioP1;P2;durP2;ratioP2
52942;SDS011;38809;53.300;6.614;2023-12-20T00:02:00;6.93;;;2.38;;
52942;SDS011;38809;53.300;6.614;2023-12-20T00:04:27;8.75;;;1.70;;
52942;SDS011;38809;53.300;6.614;2023-12-20T00:06:53;8.95;;;2.00;;
52942;SDS011;38809;53.300;6.614;2023-12-20T00:09:19;9.23;;;1.83;;
52942;SDS011;38809;53.300;6.614;2023-12-20T00:11:46;11.32;;;1.95;;
52942;SDS011;38809;53.300;6.614;2023-12-20T00:14:12;5.68;;;1.67;;
52942;SDS011;38809;53.300;6.614;2023-12-20T00:16:39;10.02;;;1.77;;
52942;SDS011;38809;53.300;6.614;2023-12-20T00:19:05;15.70;;;2.35;;
52942;SDS011;38809;53.300;6.614;2023-12-20T00:21:32;8.27;;;1.92;;
52942;SDS011;38809;53.300;6.614;2023-12-20T00:23:58;5.43;;;1.58;;
52942;SDS011;38809;53.300;6.614;2023-12-20T00:26:25;6.25;;;1.33;;
52942;SDS011;38809;53.300;6.614;2023-12-20T00:28:53;7.18;;;1.67;;
52942;SDS011;38809;53.300;6.614;2023-12-20T00:31:19;7.82;;;1.73;;
52942;SDS011;38809;53.300;6.614;2023-12-20T00:33:45;7.95;;;1.77;;
52942;SDS011;38809;53.300;6.614;2023-12-20T00:36:12;7.47;;;1.92;;
52942;SDS011;38809;53.300;6.614;2023-12-20T00:38:38;6.40;;;1.52;;
52942;SDS011;38809;53.300;6.614;2023-12-20T00:41:04;5.80;;;1.52;;
52942;SDS011;38809;53.300;6.614;2023-12-20T00:43:36;7.20;;;1.75;;
52942;SDS011;38809;53.300;6.614;2023-12-20T00:46:02;6.75;;;1.50;;
52942;SDS011;38809;53.300;6.614;2023-12-20T00:48:28;8.85;;;1.90;;
52942;SDS011;38809;53.300;6.614;2023-12-20T00:50:56;11.23;;;2.22;;
52942;SDS011;38809;53.300;6.614;2023-12-20T00:53:22;7.13;;;1.85;;
52942;SDS011;38809;53.300;6.614;2023-12-20T00:55:48;9.68;;;2.35;;
52942;SDS011;38809;53.300;6.614;2023-12-20T00:58:21;10.63;;;2.08;;
52942;SDS011;38809;53.300;6.614;2023-12-20T01:00:47;7.75;;;1.60;;
52942;SDS011;38809;53.300;6.614;2023-12-20T01:03:13;11.05;;;2.40;;
52942;SDS011;38809;53.300;6.614;2023-12-20T01:05:40;7.07;;;1.50;;
52942;SDS011;38809;53.300;6.614;2023-12-20T01:08:06;6.90;;;2.10;;
52942;SDS011;38809;53.300;6.614;2023-12-20T01:10:32;6.18;;;1.67;;
52942;SDS011;38809;53.300;6.614;2023-12-20T01:12:58;7.43;;;1.90;;
52942;SDS011;38809;53.300;6.614;2023-12-20T01:15:27;7.88;;;1.80;;
52942;SDS011;38809;53.300;6.614;2023-12-20T01:17:53;6.90;;;1.95;;
52942;SDS011;38809;53.300;6.614;2023-12-20T01:20:21;6.53;;;1.92;;
52942;SDS011;38809;53.300;6.614;2023-12-20T01:22:48;7.55;;;1.85;;
52942;SDS011;38809;53.300;6.614;2023-12-20T01:25:19;8.77;;;1.80;;
52942;SDS011;38809;53.300;6.614;2023-12-20T01:27:46;6.80;;;1.65;;
52942;SDS011;38809;53.300;6.614;2023-12-20T01:30:12;7.90;;;2.03;;
52942;SDS011;38809;53.300;6.614;2023-12-20T01:32:38;8.38;;;2.15;;
52942;SDS011;38809;53.300;6.614;2023-12-20T01:35:04;6.43;;;1.88;;
52942;SDS011;38809;53.300;6.614;2023-12-20T01:39:57;7.72;;;1.75;;
52942;SDS011;38809;53.300;6.614;2023-12-20T01:42:23;10.82;;;2.15;;
52942;SDS011;38809;53.300;6.614;2023-12-20T01:44:50;6.50;;;1.63;;
52942;SDS011;38809;53.300;6.614;2023-12-20T01:47:16;9.55;;;1.98;;
52942;SDS011;38809;53.300;6.614;2023-12-20T01:49:44;7.10;;;1.90;;
52942;SDS011;38809;53.300;6.614;2023-12-20T01:52:10;7.43;;;1.83;;
52942;SDS011;38809;53.300;6.614;2023-12-20T01:57:05;5.57;;;1.60;;
52942;SDS011;38809;53.300;6.614;2023-12-20T01:59:31;9.88;;;1.90;;
52942;SDS011;38809;53.300;6.614;2023-12-20T02:01:57;10.65;;;2.08;;
52942;SDS011;38809;53.300;6.614;2023-12-20T02:04:23;10.02;;;2.50;;
52942;SDS011;38809;53.300;6.614;2023-12-20T02:09:16;10.48;;;2.70;;
52942;SDS011;38809;53.300;6.614;2023-12-20T02:14:11;7.30;;;2.38;;
52942;SDS011;38809;53.300;6.614;2023-12-20T02:19:05;6.78;;;2.03;;
52942;SDS011;38809;53.300;6.614;2023-12-20T02:21:33;12.20;;;2.55;;
52942;SDS011;38809;53.300;6.614;2023-12-20T02:24:00;6.20;;;1.80;;
52942;SDS011;38809;53.300;6.614;2023-12-20T02:26:29;7.50;;;1.70;;
52942;SDS011;38809;53.300;6.614;2023-12-20T02:28:55;8.65;;;2.00;;
52942;SDS011;38809;53.300;6.614;2023-12-20T02:31:26;10.55;;;2.28;;
52942;SDS011;38809;53.300;6.614;2023-12-20T02:33:58;8.50;;;2.17;;
52942;SDS011;38809;53.300;6.614;2023-12-20T02:36:24;8.40;;;1.95;;
52942;SDS011;38809;53.300;6.614;2023-12-20T02:38:50;9.43;;;2.38;;
52942;SDS011;38809;53.300;6.614;2023-12-20T02:41:16;14.10;;;2.97;;
52942;SDS011;38809;53.300;6.614;2023-12-20T02:43:43;9.18;;;2.40;;
52942;SDS011;38809;53.300;6.614;2023-12-20T02:46:09;10.98;;;2.75;;
52942;SDS011;38809;53.300;6.614;2023-12-20T02:48:35;11.23;;;2.45;;
52942;SDS011;38809;53.300;6.614;2023-12-20T02:51:01;8.55;;;2.08;;
52942;SDS011;38809;53.300;6.614;2023-12-20T02:53:27;8.77;;;2.05;;
52942;SDS011;38809;53.300;6.614;2023-12-20T02:55:53;11.02;;;2.10;;
52942;SDS011;38809;53.300;6.614;2023-12-20T02:58:19;11.88;;;2.63;;
52942;SDS011;38809;53.300;6.614;2023-12-20T03:00:45;14.20;;;3.25;;
52942;SDS011;38809;53.300;6.614;2023-12-20T03:03:12;8.80;;;2.28;;
52942;SDS011;38809;53.300;6.614;2023-12-20T03:05:38;9.95;;;2.20;;
52942;SDS011;38809;53.300;6.614;2023-12-20T03:08:04;12.15;;;2.40;;
52942;SDS011;38809;53.300;6.614;2023-12-20T03:10:30;10.98;;;2.85;;
52942;SDS011;38809;53.300;6.614;2023-12-20T03:12:56;10.10;;;3.00;;
52942;SDS011;38809;53.300;6.614;2023-12-20T03:15:22;10.38;;;2.47;;
52942;SDS011;38809;53.300;6.614;2023-12-20T03:17:48;13.93;;;2.28;;
52942;SDS011;38809;53.300;6.614;2023-12-20T03:20:14;14.30;;;3.22;;
52942;SDS011;38809;53.300;6.614;2023-12-20T03:22:41;12.65;;;2.92;;
52942;SDS011;38809;53.300;6.614;2023-12-20T03:25:10;11.10;;;2.67;;
52942;SDS011;38809;53.300;6.614;2023-12-20T03:27:39;11.77;;;2.95;;
52942;SDS011;38809;53.300;6.614;2023-12-20T03:30:05;14.95;;;3.42;;
52942;SDS011;38809;53.300;6.614;2023-12-20T03:32:32;10.75;;;2.42;;
52942;SDS011;38809;53.300;6.614;2023-12-20T03:34:59;6.03;;;1.88;;
52942;SDS011;38809;53.300;6.614;2023-12-20T03:37:25;10.27;;;2.45;;
52942;SDS011;38809;53.300;6.614;2023-12-20T03:39:51;9.82;;;1.88;;
52942;SDS011;38809;53.300;6.614;2023-12-20T03:42:17;6.15;;;1.70;;
52942;SDS011;38809;53.300;6.614;2023-12-20T03:44:43;5.75;;;1.60;;
52942;SDS011;38809;53.300;6.614;2023-12-20T03:47:09;9.68;;;1.58;;
52942;SDS011;38809;53.300;6.614;2023-12-20T03:49:36;9.57;;;2.17;;
52942;SDS011;38809;53.300;6.614;2023-12-20T03:52:03;5.93;;;1.80;;
52942;SDS011;38809;53.300;6.614;2023-12-20T03:54:30;11.30;;;3.00;;
52942;SDS011;38809;53.300;6.614;2023-12-20T03:56:56;8.15;;;1.92;;
52942;SDS011;38809;53.300;6.614;2023-12-20T03:59:22;13.98;;;3.08;;
52942;SDS011;38809;53.300;6.614;2023-12-20T04:01:48;17.17;;;3.05;;
52942;SDS011;38809;53.300;6.614;2023-12-20T04:04:14;11.70;;;2.38;;
52942;SDS011;38809;53.300;6.614;2023-12-20T04:06:40;16.92;;;3.65;;
52942;SDS011;38809;53.300;6.614;2023-12-20T04:09:06;13.85;;;2.85;;
52942;SDS011;38809;53.300;6.614;2023-12-20T04:11:36;10.82;;;2.70;;
52942;SDS011;38809;53.300;6.614;2023-12-20T04:14:02;14.20;;;3.72;;
52942;SDS011;38809;53.300;6.614;2023-12-20T04:16:35;18.70;;;3.65;;
52942;SDS011;38809;53.300;6.614;2023-12-20T04:19:02;12.07;;;2.45;;
52942;SDS011;38809;53.300;6.614;2023-12-20T04:21:28;8.70;;;2.72;;
52942;SDS011;38809;53.300;6.614;2023-12-20T04:23:54;12.70;;;2.88;;
52942;SDS011;38809;53.300;6.614;2023-12-20T04:26:21;14.10;;;3.03;;
52942;SDS011;38809;53.300;6.614;2023-12-20T04:28:47;12.13;;;3.05;;
52942;SDS011;38809;53.300;6.614;2023-12-20T04:31:14;13.55;;;3.33;;
52942;SDS011;38809;53.300;6.614;2023-12-20T04:33:41;9.82;;;3.35;;
52942;SDS011;38809;53.300;6.614;2023-12-20T04:36:07;15.80;;;3.88;;
52942;SDS011;38809;53.300;6.614;2023-12-20T04:38:34;13.05;;;3.22;;
52942;SDS011;38809;53.300;6.614;2023-12-20T04:41:00;17.25;;;3.17;;
52942;SDS011;38809;53.300;6.614;2023-12-20T04:43:26;11.52;;;3.00;;
52942;SDS011;38809;53.300;6.614;2023-12-20T04:45:53;11.38;;;2.90;;
52942;SDS011;38809;53.300;6.614;2023-12-20T04:48:19;15.85;;;3.20;;
52942;SDS011;38809;53.300;6.614;2023-12-20T04:50:45;11.60;;;3.55;;
52942;SDS011;38809;53.300;6.614;2023-12-20T04:53:11;13.63;;;3.53;;
52942;SDS011;38809;53.300;6.614;2023-12-20T04:55:37;10.48;;;2.72;;
52942;SDS011;38809;53.300;6.614;2023-12-20T05:00:30;10.18;;;2.55;;
52942;SDS011;38809;53.300;6.614;2023-12-20T05:02:56;12.05;;;3.85;;
52942;SDS011;38809;53.300;6.614;2023-12-20T05:05:22;11.68;;;2.72;;
52942;SDS011;38809;53.300;6.614;2023-12-20T05:07:48;14.98;;;4.00;;
52942;SDS011;38809;53.300;6.614;2023-12-20T05:10:14;17.25;;;4.05;;
52942;SDS011;38809;53.300;6.614;2023-12-20T05:12:41;14.63;;;3.47;;
52942;SDS011;38809;53.300;6.614;2023-12-20T05:15:07;10.02;;;3.35;;
52942;SDS011;38809;53.300;6.614;2023-12-20T05:17:34;11.10;;;2.53;;
52942;SDS011;38809;53.300;6.614;2023-12-20T05:20:00;8.80;;;2.83;;
52942;SDS011;38809;53.300;6.614;2023-12-20T05:22:27;12.10;;;2.55;;
52942;SDS011;38809;53.300;6.614;2023-12-20T05:24:53;16.10;;;3.28;;
52942;SDS011;38809;53.300;6.614;2023-12-20T05:27:19;11.82;;;3.35;;
52942;SDS011;38809;53.300;6.614;2023-12-20T05:29:45;10.32;;;2.72;;
52942;SDS011;38809;53.300;6.614;2023-12-20T05:32:11;10.00;;;3.67;;
52942;SDS011;38809;53.300;6.614;2023-12-20T05:34:37;17.73;;;4.10;;
52942;SDS011;38809;53.300;6.614;2023-12-20T05:37:03;17.55;;;3.60;;
52942;SDS011;38809;53.300;6.614;2023-12-20T05:39:29;14.40;;;3.08;;
52942;SDS011;38809;53.300;6.614;2023-12-20T05:41:56;19.33;;;3.60;;
52942;SDS011;38809;53.300;6.614;2023-12-20T05:44:22;12.40;;;3.03;;
52942;SDS011;38809;53.300;6.614;2023-12-20T05:46:48;12.45;;;3.17;;
52942;SDS011;38809;53.300;6.614;2023-12-20T05:49:14;15.65;;;3.50;;
52942;SDS011;38809;53.300;6.614;2023-12-20T05:51:40;14.75;;;2.95;;
52942;SDS011;38809;53.300;6.614;2023-12-20T05:54:07;16.08;;;3.53;;
52942;SDS011;38809;53.300;6.614;2023-12-20T05:56:33;12.00;;;3.55;;
52942;SDS011;38809;53.300;6.614;2023-12-20T05:59:01;16.00;;;3.63;;
52942;SDS011;38809;53.300;6.614;2023-12-20T06:01:27;14.73;;;2.90;;
52942;SDS011;38809;53.300;6.614;2023-12-20T06:03:53;15.38;;;3.50;;
52942;SDS011;38809;53.300;6.614;2023-12-20T06:06:19;13.75;;;2.67;;
52942;SDS011;38809;53.300;6.614;2023-12-20T06:08:45;19.85;;;3.38;;
52942;SDS011;38809;53.300;6.614;2023-12-20T06:11:11;17.80;;;3.60;;
52942;SDS011;38809;53.300;6.614;2023-12-20T06:13:38;14.68;;;3.08;;
52942;SDS011;38809;53.300;6.614;2023-12-20T06:16:05;10.50;;;3.20;;
52942;SDS011;38809;53.300;6.614;2023-12-20T06:18:34;11.13;;;3.55;;
52942;SDS011;38809;53.300;6.614;2023-12-20T06:21:02;17.15;;;3.28;;
52942;SDS011;38809;53.300;6.614;2023-12-20T06:23:28;10.85;;;3.22;;
52942;SDS011;38809;53.300;6.614;2023-12-20T06:25:54;14.32;;;2.78;;
52942;SDS011;38809;53.300;6.614;2023-12-20T06:28:20;13.30;;;3.22;;
52942;SDS011;38809;53.300;6.614;2023-12-20T06:30:46;15.30;;;3.00;;
52942;SDS011;38809;53.300;6.614;2023-12-20T06:33:14;17.10;;;3.40;;
52942;SDS011;38809;53.300;6.614;2023-12-20T06:35:40;17.30;;;3.28;;
52942;SDS011;38809;53.300;6.614;2023-12-20T06:38:06;13.85;;;3.63;;
52942;SDS011;38809;53.300;6.614;2023-12-20T06:40:33;20.38;;;4.07;;
52942;SDS011;38809;53.300;6.614;2023-12-20T06:43:05;14.23;;;3.55;;
52942;SDS011;38809;53.300;6.614;2023-12-20T06:45:32;14.65;;;3.65;;
52942;SDS011;38809;53.300;6.614;2023-12-20T06:47:58;14.90;;;3.25;;
52942;SDS011;38809;53.300;6.614;2023-12-20T06:50:24;14.38;;;3.47;;
52942;SDS011;38809;53.300;6.614;2023-12-20T06:52:50;15.38;;;3.65;;
52942;SDS011;38809;53.300;6.614;2023-12-20T06:55:17;19.75;;;3.88;;
52942;SDS011;38809;53.300;6.614;2023-12-20T06:57:43;16.00;;;3.85;;
52942;SDS011;38809;53.300;6.614;2023-12-20T07:00:10;17.30;;;4.15;;
52942;SDS011;38809;53.300;6.614;2023-12-20T07:02:37;15.43;;;4.13;;
52942;SDS011;38809;53.300;6.614;2023-12-20T07:05:03;16.60;;;4.18;;
52942;SDS011;38809;53.300;6.614;2023-12-20T07:07:29;19.48;;;4.32;;
52942;SDS011;38809;53.300;6.614;2023-12-20T07:09:55;15.88;;;3.60;;
52942;SDS011;38809;53.300;6.614;2023-12-20T07:12:22;14.77;;;3.92;;
52942;SDS011;38809;53.300;6.614;2023-12-20T07:14:48;14.63;;;3.47;;
52942;SDS011;38809;53.300;6.614;2023-12-20T07:17:14;14.32;;;3.58;;
52942;SDS011;38809;53.300;6.614;2023-12-20T07:19:41;11.32;;;3.10;;
52942;SDS011;38809;53.300;6.614;2023-12-20T07:22:08;14.20;;;3.47;;
52942;SDS011;38809;53.300;6.614;2023-12-20T07:24:34;14.55;;;3.03;;
52942;SDS011;38809;53.300;6.614;2023-12-20T07:27:01;10.32;;;3.17;;
52942;SDS011;38809;53.300;6.614;2023-12-20T07:29:27;18.38;;;4.28;;
52942;SDS011;38809;53.300;6.614;2023-12-20T07:31:53;13.95;;;3.72;;
52942;SDS011;38809;53.300;6.614;2023-12-20T07:34:20;19.63;;;4.20;;
52942;SDS011;38809;53.300;6.614;2023-12-20T07:36:46;15.35;;;4.38;;
52942;SDS011;38809;53.300;6.614;2023-12-20T07:39:12;14.52;;;3.42;;
52942;SDS011;38809;53.300;6.614;2023-12-20T07:41:38;12.60;;;3.80;;
52942;SDS011;38809;53.300;6.614;2023-12-20T07:44:05;12.23;;;2.95;;
52942;SDS011;38809;53.300;6.614;2023-12-20T07:48:57;18.17;;;3.65;;
52942;SDS011;38809;53.300;6.614;2023-12-20T07:51:23;18.15;;;4.05;;
52942;SDS011;38809;53.300;6.614;2023-12-20T07:53:51;16.08;;;4.00;;
52942;SDS011;38809;53.300;6.614;2023-12-20T07:56:18;14.93;;;3.90;;
52942;SDS011;38809;53.300;6.614;2023-12-20T07:58:46;11.98;;;2.95;;
52942;SDS011;38809;53.300;6.614;2023-12-20T08:01:16;14.52;;;3.08;;
52942;SDS011;38809;53.300;6.614;2023-12-20T08:03:43;17.05;;;4.05;;
52942;SDS011;38809;53.300;6.614;2023-12-20T08:06:14;15.25;;;3.85;;
52942;SDS011;38809;53.300;6.614;2023-12-20T08:08:50;14.25;;;3.30;;
52942;SDS011;38809;53.300;6.614;2023-12-20T08:11:16;18.15;;;3.47;;
52942;SDS011;38809;53.300;6.614;2023-12-20T08:13:42;16.17;;;3.55;;
52942;SDS011;38809;53.300;6.614;2023-12-20T08:16:08;12.45;;;3.58;;
52942;SDS011;38809;53.300;6.614;2023-12-20T08:18:38;14.65;;;3.15;;
52942;SDS011;38809;53.300;6.614;2023-12-20T08:21:04;13.00;;;3.95;;
52942;SDS011;38809;53.300;6.614;2023-12-20T08:23:32;12.25;;;3.22;;
52942;SDS011;38809;53.300;6.614;2023-12-20T08:28:25;6.35;;;1.90;;
52942;SDS011;38809;53.300;6.614;2023-12-20T08:30:52;6.63;;;1.27;;
52942;SDS011;38809;53.300;6.614;2023-12-20T08:33:18;4.95;;;1.15;;
52942;SDS011;38809;53.300;6.614;2023-12-20T08:35:45;2.88;;;0.93;;
52942;SDS011;38809;53.300;6.614;2023-12-20T08:38:18;2.75;;;0.90;;
52942;SDS011;38809;53.300;6.614;2023-12-20T08:40:44;8.20;;;1.30;;
52942;SDS011;38809;53.300;6.614;2023-12-20T08:43:10;3.65;;;1.00;;
52942;SDS011;38809;53.300;6.614;2023-12-20T08:45:37;7.97;;;1.35;;
52942;SDS011;38809;53.300;6.614;2023-12-20T08:48:04;6.65;;;1.50;;
52942;SDS011;38809;53.300;6.614;2023-12-20T08:50:30;7.55;;;1.80;;
52942;SDS011;38809;53.300;6.614;2023-12-20T08:52:56;4.38;;;1.25;;
52942;SDS011;38809;53.300;6.614;2023-12-20T08:55:23;3.70;;;0.98;;
52942;SDS011;38809;53.300;6.614;2023-12-20T09:00:15;7.72;;;1.63;;
52942;SDS011;38809;53.300;6.614;2023-12-20T09:02:42;3.97;;;1.15;;
52942;SDS011;38809;53.300;6.614;2023-12-20T09:05:10;7.07;;;1.60;;
52942;SDS011;38809;53.300;6.614;2023-12-20T09:07:36;6.47;;;1.42;;
52942;SDS011;38809;53.300;6.614;2023-12-20T09:10:02;4.88;;;1.23;;
52942;SDS011;38809;53.300;6.614;2023-12-20T09:12:28;4.40;;;0.98;;
52942;SDS011;38809;53.300;6.614;2023-12-20T09:14:55;6.15;;;1.02;;
52942;SDS011;38809;53.300;6.614;2023-12-20T09:17:21;4.80;;;1.20;;
52942;SDS011;38809;53.300;6.614;2023-12-20T09:19:48;7.05;;;1.38;;
52942;SDS011;38809;53.300;6.614;2023-12-20T09:22:15;5.57;;;1.25;;
52942;SDS011;38809;53.300;6.614;2023-12-20T09:24:41;7.80;;;1.63;;
52942;SDS011;38809;53.300;6.614;2023-12-20T09:27:07;5.82;;;1.35;;
52942;SDS011;38809;53.300;6.614;2023-12-20T09:29:33;7.57;;;1.50;;
52942;SDS011;38809;53.300;6.614;2023-12-20T09:31:59;5.47;;;1.35;;
52942;SDS011;38809;53.300;6.614;2023-12-20T09:34:25;4.82;;;1.20;;
52942;SDS011;38809;53.300;6.614;2023-12-20T09:36:52;5.70;;;1.13;;
52942;SDS011;38809;53.300;6.614;2023-12-20T09:39:19;5.45;;;1.30;;
52942;SDS011;38809;53.300;6.614;2023-12-20T09:41:47;6.53;;;1.42;;
52942;SDS011;38809;53.300;6.614;2023-12-20T09:44:15;8.82;;;1.48;;
52942;SDS011;38809;53.300;6.614;2023-12-20T09:46:45;4.00;;;1.15;;
52942;SDS011;38809;53.300;6.614;2023-12-20T09:49:14;4.72;;;1.58;;
52942;SDS011;38809;53.300;6.614;2023-12-20T09:51:43;8.70;;;1.27;;
52942;SDS011;38809;53.300;6.614;2023-12-20T09:54:09;7.07;;;1.23;;
52942;SDS011;38809;53.300;6.614;2023-12-20T09:56:35;4.97;;;1.42;;
52942;SDS011;38809;53.300;6.614;2023-12-20T09:59:03;5.32;;;1.15;;
52942;SDS011;38809;53.300;6.614;2023-12-20T10:01:29;6.10;;;1.02;;
52942;SDS011;38809;53.300;6.614;2023-12-20T10:03:57;6.75;;;1.65;;
52942;SDS011;38809;53.300;6.614;2023-12-20T10:06:23;5.38;;;1.63;;
52942;SDS011;38809;53.300;6.614;2023-12-20T10:08:49;7.15;;;1.60;;
52942;SDS011;38809;53.300;6.614;2023-12-20T10:11:16;9.00;;;1.60;;
52942;SDS011;38809;53.300;6.614;2023-12-20T10:13:42;8.68;;;1.30;;
52942;SDS011;38809;53.300;6.614;2023-12-20T10:16:09;6.68;;;1.55;;
52942;SDS011;38809;53.300;6.614;2023-12-20T10:18:35;5.53;;;1.40;;
52942;SDS011;38809;53.300;6.614;2023-12-20T10:21:01;7.50;;;1.52;;
52942;SDS011;38809;53.300;6.614;2023-12-20T10:23:29;4.88;;;1.60;;
52942;SDS011;38809;53.300;6.614;2023-12-20T10:25:56;7.47;;;1.55;;
52942;SDS011;38809;53.300;6.614;2023-12-20T10:28:34;5.80;;;1.50;;
52942;SDS011;38809;53.300;6.614;2023-12-20T10:31:01;6.93;;;1.42;;
52942;SDS011;38809;53.300;6.614;2023-12-20T10:33:27;7.47;;;1.63;;
52942;SDS011;38809;53.300;6.614;2023-12-20T10:38:20;10.05;;;2.10;;
52942;SDS011;38809;53.300;6.614;2023-12-20T10:40:46;8.00;;;1.90;;
52942;SDS011;38809;53.300;6.614;2023-12-20T10:43:12;8.73;;;2.00;;
52942;SDS011;38809;53.300;6.614;2023-12-20T10:45:38;6.72;;;1.80;;
52942;SDS011;38809;53.300;6.614;2023-12-20T10:50:32;10.98;;;2.13;;
52942;SDS011;38809;53.300;6.614;2023-12-20T10:52:59;7.88;;;1.85;;
52942;SDS011;38809;53.300;6.614;2023-12-20T10:55:25;12.88;;;2.85;;
52942;SDS011;38809;53.300;6.614;2023-12-20T10:57:51;9.95;;;2.00;;
52942;SDS011;38809;53.300;6.614;2023-12-20T11:02:44;7.88;;;1.70;;
52942;SDS011;38809;53.300;6.614;2023-12-20T11:07:42;7.85;;;1.70;;
52942;SDS011;38809;53.300;6.614;2023-12-20T11:12:54;7.63;;;1.95;;
52942;SDS011;38809;53.300;6.614;2023-12-20T11:15:22;10.55;;;2.60;;
52942;SDS011;38809;53.300;6.614;2023-12-20T11:17:56;11.45;;;2.45;;
52942;SDS011;38809;53.300;6.614;2023-12-20T11:20:23;16.27;;;2.58;;
52942;SDS011;38809;53.300;6.614;2023-12-20T11:22:55;13.23;;;2.60;;
52942;SDS011;38809;53.300;6.614;2023-12-20T11:25:21;7.93;;;2.63;;
52942;SDS011;38809;53.300;6.614;2023-12-20T11:30:41;10.80;;;2.53;;
52942;SDS011;38809;53.300;6.614;2023-12-20T11:33:08;11.07;;;2.70;;
52942;SDS011;38809;53.300;6.614;2023-12-20T11:35:34;15.38;;;2.88;;
52942;SDS011;38809;53.300;6.614;2023-12-20T11:38:04;12.32;;;2.25;;
52942;SDS011;38809;53.300;6.614;2023-12-20T11:40:30;9.10;;;1.80;;
52942;SDS011;38809;53.300;6.614;2023-12-20T11:42:59;12.10;;;2.83;;
52942;SDS011;38809;53.300;6.614;2023-12-20T11:45:25;11.05;;;2.35;;
52942;SDS011;38809;53.300;6.614;2023-12-20T11:47:52;8.77;;;2.45;;
52942;SDS011;38809;53.300;6.614;2023-12-20T11:50:20;10.68;;;2.40;;
52942;SDS011;38809;53.300;6.614;2023-12-20T11:52:48;9.25;;;2.72;;
52942;SDS011;38809;53.300;6.614;2023-12-20T11:55:14;12.00;;;2.53;;
52942;SDS011;38809;53.300;6.614;2023-12-20T11:57:41;10.75;;;3.03;;
52942;SDS011;38809;53.300;6.614;2023-12-20T12:00:09;10.93;;;2.47;;
52942;SDS011;38809;53.300;6.614;2023-12-20T12:02:35;9.77;;;2.53;;
52942;SDS011;38809;53.300;6.614;2023-12-20T12:05:01;8.95;;;2.05;;
52942;SDS011;38809;53.300;6.614;2023-12-20T12:07:30;12.00;;;3.30;;
52942;SDS011;38809;53.300;6.614;2023-12-20T12:09:57;12.57;;;3.10;;
52942;SDS011;38809;53.300;6.614;2023-12-20T12:14:50;13.75;;;3.42;;
52942;SDS011;38809;53.300;6.614;2023-12-20T12:17:16;10.95;;;2.40;;
52942;SDS011;38809;53.300;6.614;2023-12-20T12:19:43;10.88;;;2.53;;
52942;SDS011;38809;53.300;6.614;2023-12-20T12:22:09;10.75;;;2.80;;
52942;SDS011;38809;53.300;6.614;2023-12-20T12:24:37;9.45;;;2.17;;
52942;SDS011;38809;53.300;6.614;2023-12-20T12:27:05;10.40;;;1.92;;
52942;SDS011;38809;53.300;6.614;2023-12-20T12:29:32;12.40;;;2.85;;
52942;SDS011;38809;53.300;6.614;2023-12-20T12:31:59;7.45;;;2.15;;
52942;SDS011;38809;53.300;6.614;2023-12-20T12:34:27;8.90;;;2.50;;
52942;SDS011;38809;53.300;6.614;2023-12-20T12:36:53;9.05;;;1.77;;
52942;SDS011;38809;53.300;6.614;2023-12-20T12:39:19;12.10;;;2.05;;
52942;SDS011;38809;53.300;6.614;2023-12-20T12:41:48;8.95;;;2.20;;
52942;SDS011;38809;53.300;6.614;2023-12-20T12:44:17;10.45;;;2.30;;
52942;SDS011;38809;53.300;6.614;2023-12-20T12:46:47;6.72;;;1.90;;
52942;SDS011;38809;53.300;6.614;2023-12-20T12:49:16;10.77;;;2.58;;
52942;SDS011;38809;53.300;6.614;2023-12-20T12:51:42;7.30;;;1.63;;
52942;SDS011;38809;53.300;6.614;2023-12-20T12:56:35;6.80;;;2.00;;
52942;SDS011;38809;53.300;6.614;2023-12-20T13:01:27;9.40;;;2.03;;
52942;SDS011;38809;53.300;6.614;2023-12-20T13:03:53;8.57;;;1.88;;
52942;SDS011;38809;53.300;6.614;2023-12-20T13:06:19;5.55;;;1.70;;
52942;SDS011;38809;53.300;6.614;2023-12-20T13:08:46;6.13;;;1.75;;
52942;SDS011;38809;53.300;6.614;2023-12-20T13:11:12;7.22;;;1.77;;
52942;SDS011;38809;53.300;6.614;2023-12-20T13:13:38;7.68;;;2.03;;
52942;SDS011;38809;53.300;6.614;2023-12-20T13:16:04;8.20;;;1.83;;
52942;SDS011;38809;53.300;6.614;2023-12-20T13:18:30;8.77;;;1.90;;
52942;SDS011;38809;53.300;6.614;2023-12-20T13:20:57;5.18;;;1.65;;
52942;SDS011;38809;53.300;6.614;2023-12-20T13:23:29;8.05;;;2.00;;
52942;SDS011;38809;53.300;6.614;2023-12-20T13:25:55;6.70;;;1.95;;
52942;SDS011;38809;53.300;6.614;2023-12-20T13:28:21;6.90;;;1.45;;
52942;SDS011;38809;53.300;6.614;2023-12-20T13:30:47;10.63;;;3.05;;
52942;SDS011;38809;53.300;6.614;2023-12-20T13:33:13;8.75;;;1.92;;
52942;SDS011;38809;53.300;6.614;2023-12-20T13:35:39;7.22;;;1.70;;
52942;SDS011;38809;53.300;6.614;2023-12-20T13:38:05;6.57;;;1.52;;
52942;SDS011;38809;53.300;6.614;2023-12-20T13:40:32;9.57;;;1.75;;
52942;SDS011;38809;53.300;6.614;2023-12-20T13:42:58;5.00;;;1.25;;
52942;SDS011;38809;53.300;6.614;2023-12-20T13:45:25;7.88;;;2.08;;
52942;SDS011;38809;53.300;6.614;2023-12-20T13:47:51;7.15;;;1.90;;
52942;SDS011;38809;53.300;6.614;2023-12-20T13:50:17;6.75;;;1.55;;
52942;SDS011;38809;53.300;6.614;2023-12-20T13:52:44;6.68;;;1.90;;
52942;SDS011;38809;53.300;6.614;2023-12-20T13:55:11;5.57;;;1.50;;
52942;SDS011;38809;53.300;6.614;2023-12-20T13:57:37;5.93;;;1.40;;
52942;SDS011;38809;53.300;6.614;2023-12-20T14:00:05;5.55;;;1.63;;
52942;SDS011;38809;53.300;6.614;2023-12-20T14:02:37;5.80;;;1.38;;
52942;SDS011;38809;53.300;6.614;2023-12-20T14:05:03;4.60;;;1.35;;
52942;SDS011;38809;53.300;6.614;2023-12-20T14:07:30;5.40;;;1.10;;
52942;SDS011;38809;53.300;6.614;2023-12-20T14:09:56;6.85;;;1.80;;
52942;SDS011;38809;53.300;6.614;2023-12-20T14:12:24;4.57;;;1.50;;
52942;SDS011;38809;53.300;6.614;2023-12-20T14:14:50;6.20;;;1.35;;
52942;SDS011;38809;53.300;6.614;2023-12-20T14:17:17;6.35;;;1.60;;
52942;SDS011;38809;53.300;6.614;2023-12-20T14:22:09;6.07;;;1.70;;
52942;SDS011;38809;53.300;6.614;2023-12-20T14:24:35;5.60;;;1.42;;
52942;SDS011;38809;53.300;6.614;2023-12-20T14:27:01;5.97;;;1.33;;
52942;SDS011;38809;53.300;6.614;2023-12-20T14:29:27;6.40;;;1.42;;
52942;SDS011;38809;53.300;6.614;2023-12-20T14:31:53;7.35;;;1.90;;
52942;SDS011;38809;53.300;6.614;2023-12-20T14:34:19;6.28;;;1.10;;
52942;SDS011;38809;53.300;6.614;2023-12-20T14:36:46;5.95;;;1.10;;
52942;SDS011;38809;53.300;6.614;2023-12-20T14:39:12;5.45;;;1.35;;
52942;SDS011;38809;53.300;6.614;2023-12-20T14:44:07;4.50;;;1.08;;
52942;SDS011;38809;53.300;6.614;2023-12-20T14:46:34;4.97;;;1.10;;
52942;SDS011;38809;53.300;6.614;2023-12-20T14:49:00;3.80;;;1.02;;
52942;SDS011;38809;53.300;6.614;2023-12-20T14:51:27;5.30;;;1.20;;
52942;SDS011;38809;53.300;6.614;2023-12-20T14:53:53;5.80;;;1.25;;
52942;SDS011;38809;53.300;6.614;2023-12-20T14:56:20;4.60;;;1.02;;
52942;SDS011;38809;53.300;6.614;2023-12-20T14:58:46;4.15;;;1.02;;
52942;SDS011;38809;53.300;6.614;2023-12-20T15:03:38;2.97;;;1.08;;
52942;SDS011;38809;53.300;6.614;2023-12-20T15:06:06;3.05;;;0.98;;
52942;SDS011;38809;53.300;6.614;2023-12-20T15:08:34;4.75;;;1.10;;
52942;SDS011;38809;53.300;6.614;2023-12-20T15:13:29;5.25;;;1.15;;
52942;SDS011;38809;53.300;6.614;2023-12-20T15:15:56;6.32;;;1.48;;
52942;SDS011;38809;53.300;6.614;2023-12-20T15:18:24;4.18;;;1.08;;
52942;SDS011;38809;53.300;6.614;2023-12-20T15:20:50;3.75;;;0.82;;
52942;SDS011;38809;53.300;6.614;2023-12-20T15:23:16;5.47;;;1.33;;
52942;SDS011;38809;53.300;6.614;2023-12-20T15:25:44;6.50;;;1.38;;
52942;SDS011;38809;53.300;6.614;2023-12-20T15:28:10;6.07;;;1.60;;
52942;SDS011;38809;53.300;6.614;2023-12-20T15:30:36;5.38;;;1.20;;
52942;SDS011;38809;53.300;6.614;2023-12-20T15:33:02;5.32;;;1.65;;